sensor_id;sensor_type;location;lat;lon;timestamp;temperature;humidity
20345;DHT22;10330;48.816;9.278;2022-08-21T00:02:20;17.60;99.90
20345;DHT22;10330;48.816;9.278;2022-08-21T00:04:47;17.60;99.90
20345;DHT22;10330;48.816;9.278;2022-08-21T00:07:14;17.60;99.90
20345;DHT22;10330;48.816;9.278;2022-08-21T00:09:41;17.50;99.90
20345;DHT22;10330;48.816;9.278;2022-08-21T00:12:08;17.50;99.90
20345;DHT22;10330;48.816;9.278;2022-08-21T00:14:34;17.50;99.90
20345;DHT22;10330;48.816;9.278;2022-08-21T00:17:01;17.40;99.90
20345;DHT22;10330;48.816;9.278;2022-08-21T00:19:27;17.40;99.90
20345;DHT22;10330;48.816;9.278;2022-08-21T00:21:54;17.30;99.90
20345;DHT22;10330;48.816;9.278;2022-08-21T00:24:21;17.40;99.90
20345;DHT22;10330;48.816;9.278;2022-08-21T00:26:48;17.30;99.90
20345;DHT22;10330;48.816;9.278;2022-08-21T00:29:15;17.30;99.90
20345;DHT22;10330;48.816;9.278;2022-08-21T00:31:42;17.40;99.90
20345;DHT22;10330;48.816;9.278;2022-08-21T00:34:10;17.30;99.90
20345;DHT22;10330;48.816;9.278;2022-08-21T00:36:37;17.30;99.90
20345;DHT22;10330;48.816;9.278;2022-08-21T00:39:06;17.30;99.90
20345;DHT22;10330;48.816;9.278;2022-08-21T00:41:34;17.20;99.90
20345;DHT22;10330;48.816;9.278;2022-08-21T00:44:02;17.30;99.90
20345;DHT22;10330;48.816;9.278;2022-08-21T00:46:28;17.20;99.90
20345;DHT22;10330;48.816;9.278;2022-08-21T00:48:55;17.10;99.90
20345;DHT22;10330;48.816;9.278;2022-08-21T00:51:25;17.10;99.90
20345;DHT22;10330;48.816;9.278;2022-08-21T00:53:57;17.20;99.90
20345;DHT22;10330;48.816;9.278;2022-08-21T00:56:25;17.10;99.90
20345;DHT22;10330;48.816;9.278;2022-08-21T00:58:53;17.10;99.90
20345;DHT22;10330;48.816;9.278;2022-08-21T01:01:20;17.00;99.90
20345;DHT22;10330;48.816;9.278;2022-08-21T01:03:46;17.00;99.90
20345;DHT22;10330;48.816;9.278;2022-08-21T01:06:13;16.90;99.90
20345;DHT22;10330;48.816;9.278;2022-08-21T01:08:39;16.90;99.90
20345;DHT22;10330;48.816;9.278;2022-08-21T01:11:05;16.80;99.90
20345;DHT22;10330;48.816;9.278;2022-08-21T01:13:34;16.80;99.90
20345;DHT22;10330;48.816;9.278;2022-08-21T01:16:04;16.80;99.90
20345;DHT22;10330;48.816;9.278;2022-08-21T01:18:31;16.80;99.90
20345;DHT22;10330;48.816;9.278;2022-08-21T01:23:29;16.70;99.90
20345;DHT22;10330;48.816;9.278;2022-08-21T01:25:56;16.70;99.90
20345;DHT22;10330;48.816;9.278;2022-08-21T01:28:22;16.70;99.90
20345;DHT22;10330;48.816;9.278;2022-08-21T01:30:51;16.60;99.90
20345;DHT22;10330;48.816;9.278;2022-08-21T01:33:21;16.60;99.90
20345;DHT22;10330;48.816;9.278;2022-08-21T01:35:47;16.60;99.90
20345;DHT22;10330;48.816;9.278;2022-08-21T01:38:14;16.50;99.90
20345;DHT22;10330;48.816;9.278;2022-08-21T01:40:40;16.50;99.90
20345;DHT22;10330;48.816;9.278;2022-08-21T01:43:06;16.50;99.90
20345;DHT22;10330;48.816;9.278;2022-08-21T01:45:32;16.40;99.90
20345;DHT22;10330;48.816;9.278;2022-08-21T01:47:58;16.40;99.90
20345;DHT22;10330;48.816;9.278;2022-08-21T01:50:24;16.40;99.90
20345;DHT22;10330;48.816;9.278;2022-08-21T01:52:51;16.40;99.90
20345;DHT22;10330;48.816;9.278;2022-08-21T01:55:19;16.30;99.90
20345;DHT22;10330;48.816;9.278;2022-08-21T01:57:46;16.30;99.90
20345;DHT22;10330;48.816;9.278;2022-08-21T02:00:16;16.30;99.90
20345;DHT22;10330;48.816;9.278;2022-08-21T02:02:42;16.30;99.90
20345;DHT22;10330;48.816;9.278;2022-08-21T02:05:11;16.30;99.90
20345;DHT22;10330;48.816;9.278;2022-08-21T02:07:40;16.20;99.90
20345;DHT22;10330;48.816;9.278;2022-08-21T02:10:08;16.20;99.90
20345;DHT22;10330;48.816;9.278;2022-08-21T02:12:35;16.10;99.90
20345;DHT22;10330;48.816;9.278;2022-08-21T02:15:03;16.10;99.90
20345;DHT22;10330;48.816;9.278;2022-08-21T02:17:58;16.00;99.90
20345;DHT22;10330;48.816;9.278;2022-08-21T02:20:30;16.00;99.90
20345;DHT22;10330;48.816;9.278;2022-08-21T02:22:57;16.00;99.90
20345;DHT22;10330;48.816;9.278;2022-08-21T02:25:25;16.00;99.90
20345;DHT22;10330;48.816;9.278;2022-08-21T02:27:52;16.00;99.90
20345;DHT22;10330;48.816;9.278;2022-08-21T02:30:26;16.00;99.90
20345;DHT22;10330;48.816;9.278;2022-08-21T02:32:52;16.00;99.90
20345;DHT22;10330;48.816;9.278;2022-08-21T02:35:19;16.00;99.90
20345;DHT22;10330;48.816;9.278;2022-08-21T02:37:54;15.90;99.90
20345;DHT22;10330;48.816;9.278;2022-08-21T02:40:23;15.90;99.90
20345;DHT22;10330;48.816;9.278;2022-08-21T02:42:50;15.80;99.90
20345;DHT22;10330;48.816;9.278;2022-08-21T02:45:17;15.80;99.90
20345;DHT22;10330;48.816;9.278;2022-08-21T02:48:07;15.80;99.90
20345;DHT22;10330;48.816;9.278;2022-08-21T02:50:43;15.70;99.90
20345;DHT22;10330;48.816;9.278;2022-08-21T02:53:12;15.80;99.90
20345;DHT22;10330;48.816;9.278;2022-08-21T02:55:40;15.80;99.90
20345;DHT22;10330;48.816;9.278;2022-08-21T02:58:07;15.70;99.90
20345;DHT22;10330;48.816;9.278;2022-08-21T03:00:35;15.70;99.90
20345;DHT22;10330;48.816;9.278;2022-08-21T03:03:04;15.60;99.90
20345;DHT22;10330;48.816;9.278;2022-08-21T03:05:32;15.60;99.90
20345;DHT22;10330;48.816;9.278;2022-08-21T03:08:01;15.60;99.90
20345;DHT22;10330;48.816;9.278;2022-08-21T03:10:28;15.60;99.90
20345;DHT22;10330;48.816;9.278;2022-08-21T03:12:55;15.60;99.90
20345;DHT22;10330;48.816;9.278;2022-08-21T03:15:22;15.60;99.90
20345;DHT22;10330;48.816;9.278;2022-08-21T03:17:50;15.50;99.90
20345;DHT22;10330;48.816;9.278;2022-08-21T03:20:23;15.50;99.90
20345;DHT22;10330;48.816;9.278;2022-08-21T03:22:51;15.40;99.90
20345;DHT22;10330;48.816;9.278;2022-08-21T03:25:17;15.40;99.90
20345;DHT22;10330;48.816;9.278;2022-08-21T03:27:44;15.40;99.90
20345;DHT22;10330;48.816;9.278;2022-08-21T03:30:11;15.40;99.90
20345;DHT22;10330;48.816;9.278;2022-08-21T03:32:37;15.40;99.90
20345;DHT22;10330;48.816;9.278;2022-08-21T03:35:04;15.30;99.90
20345;DHT22;10330;48.816;9.278;2022-08-21T03:37:31;15.30;99.90
20345;DHT22;10330;48.816;9.278;2022-08-21T03:39:58;15.30;99.90
20345;DHT22;10330;48.816;9.278;2022-08-21T03:42:24;15.20;99.90
20345;DHT22;10330;48.816;9.278;2022-08-21T03:44:51;15.20;99.90
20345;DHT22;10330;48.816;9.278;2022-08-21T03:47:17;15.20;99.90
20345;DHT22;10330;48.816;9.278;2022-08-21T03:49:44;15.20;99.90
20345;DHT22;10330;48.816;9.278;2022-08-21T03:52:10;15.20;99.90
20345;DHT22;10330;48.816;9.278;2022-08-21T03:54:36;15.20;99.90
20345;DHT22;10330;48.816;9.278;2022-08-21T03:57:02;15.20;99.90
20345;DHT22;10330;48.816;9.278;2022-08-21T03:59:29;15.20;99.90
20345;DHT22;10330;48.816;9.278;2022-08-21T04:01:58;15.20;99.90
20345;DHT22;10330;48.816;9.278;2022-08-21T04:04:26;15.20;99.90
20345;DHT22;10330;48.816;9.278;2022-08-21T04:06:52;15.10;99.90
20345;DHT22;10330;48.816;9.278;2022-08-21T04:09:19;15.20;99.90
20345;DHT22;10330;48.816;9.278;2022-08-21T04:11:45;15.10;99.90
20345;DHT22;10330;48.816;9.278;2022-08-21T04:14:13;15.10;99.90
20345;DHT22;10330;48.816;9.278;2022-08-21T04:16:41;15.10;99.90
20345;DHT22;10330;48.816;9.278;2022-08-21T04:19:08;15.10;99.90
20345;DHT22;10330;48.816;9.278;2022-08-21T04:21:36;15.10;99.90
20345;DHT22;10330;48.816;9.278;2022-08-21T04:24:04;15.10;99.90
20345;DHT22;10330;48.816;9.278;2022-08-21T04:26:31;15.10;99.90
20345;DHT22;10330;48.816;9.278;2022-08-21T04:28:57;15.10;99.90
20345;DHT22;10330;48.816;9.278;2022-08-21T04:31:24;15.10;99.90
20345;DHT22;10330;48.816;9.278;2022-08-21T04:33:51;15.00;99.90
20345;DHT22;10330;48.816;9.278;2022-08-21T04:36:17;15.10;99.90
20345;DHT22;10330;48.816;9.278;2022-08-21T04:38:44;15.00;99.90
20345;DHT22;10330;48.816;9.278;2022-08-21T04:41:10;15.00;99.90
20345;DHT22;10330;48.816;9.278;2022-08-21T04:43:38;15.00;99.90
20345;DHT22;10330;48.816;9.278;2022-08-21T04:46:05;14.90;99.90
20345;DHT22;10330;48.816;9.278;2022-08-21T04:48:31;14.90;99.90
20345;DHT22;10330;48.816;9.278;2022-08-21T04:53:49;14.90;99.90
20345;DHT22;10330;48.816;9.278;2022-08-21T04:56:26;14.90;99.90
20345;DHT22;10330;48.816;9.278;2022-08-21T04:58:54;15.00;99.90
20345;DHT22;10330;48.816;9.278;2022-08-21T05:01:23;15.00;99.90
20345;DHT22;10330;48.816;9.278;2022-08-21T05:03:53;15.00;99.90
20345;DHT22;10330;48.816;9.278;2022-08-21T05:06:22;15.00;99.90
20345;DHT22;10330;48.816;9.278;2022-08-21T05:08:50;14.90;99.90
20345;DHT22;10330;48.816;9.278;2022-08-21T05:11:18;14.90;99.90
20345;DHT22;10330;48.816;9.278;2022-08-21T05:13:45;14.90;99.90
20345;DHT22;10330;48.816;9.278;2022-08-21T05:16:11;14.90;99.90
20345;DHT22;10330;48.816;9.278;2022-08-21T05:18:38;14.90;99.90
20345;DHT22;10330;48.816;9.278;2022-08-21T05:21:04;14.80;99.90
20345;DHT22;10330;48.816;9.278;2022-08-21T05:23:31;14.90;99.90
20345;DHT22;10330;48.816;9.278;2022-08-21T05:25:57;14.90;99.90
20345;DHT22;10330;48.816;9.278;2022-08-21T05:28:24;14.90;99.90
20345;DHT22;10330;48.816;9.278;2022-08-21T05:30:51;14.90;99.90
20345;DHT22;10330;48.816;9.278;2022-08-21T05:33:17;14.90;99.90
20345;DHT22;10330;48.816;9.278;2022-08-21T05:35:43;14.90;99.90
20345;DHT22;10330;48.816;9.278;2022-08-21T05:38:10;15.00;99.90
20345;DHT22;10330;48.816;9.278;2022-08-21T05:40:36;15.00;99.90
20345;DHT22;10330;48.816;9.278;2022-08-21T05:43:03;15.00;99.90
20345;DHT22;10330;48.816;9.278;2022-08-21T05:45:32;15.10;99.90
20345;DHT22;10330;48.816;9.278;2022-08-21T05:48:05;15.10;99.90
20345;DHT22;10330;48.816;9.278;2022-08-21T05:50:32;15.20;99.90
20345;DHT22;10330;48.816;9.278;2022-08-21T05:52:58;15.30;99.90
20345;DHT22;10330;48.816;9.278;2022-08-21T05:55:24;15.40;99.90
20345;DHT22;10330;48.816;9.278;2022-08-21T05:57:50;15.50;99.90
20345;DHT22;10330;48.816;9.278;2022-08-21T06:00:16;15.60;99.90
20345;DHT22;10330;48.816;9.278;2022-08-21T06:02:43;15.60;99.90
20345;DHT22;10330;48.816;9.278;2022-08-21T06:05:09;15.70;99.90
20345;DHT22;10330;48.816;9.278;2022-08-21T06:07:35;15.80;99.90
20345;DHT22;10330;48.816;9.278;2022-08-21T06:10:02;15.80;99.90
20345;DHT22;10330;48.816;9.278;2022-08-21T06:12:28;15.90;99.90
20345;DHT22;10330;48.816;9.278;2022-08-21T06:14:55;15.90;99.90
20345;DHT22;10330;48.816;9.278;2022-08-21T06:17:21;16.00;99.90
20345;DHT22;10330;48.816;9.278;2022-08-21T06:19:52;16.00;99.90
20345;DHT22;10330;48.816;9.278;2022-08-21T06:22:18;16.20;99.90
20345;DHT22;10330;48.816;9.278;2022-08-21T06:24:44;16.20;99.90
20345;DHT22;10330;48.816;9.278;2022-08-21T06:27:11;16.30;99.90
20345;DHT22;10330;48.816;9.278;2022-08-21T06:29:37;16.20;99.90
20345;DHT22;10330;48.816;9.278;2022-08-21T06:32:04;16.30;99.90
20345;DHT22;10330;48.816;9.278;2022-08-21T06:34:36;16.40;99.90
20345;DHT22;10330;48.816;9.278;2022-08-21T06:37:04;16.50;99.90
20345;DHT22;10330;48.816;9.278;2022-08-21T06:39:31;16.60;99.90
20345;DHT22;10330;48.816;9.278;2022-08-21T06:41:57;16.70;99.90
20345;DHT22;10330;48.816;9.278;2022-08-21T06:44:29;16.80;99.90
20345;DHT22;10330;48.816;9.278;2022-08-21T06:46:56;16.90;99.90
20345;DHT22;10330;48.816;9.278;2022-08-21T06:49:23;17.00;99.90
20345;DHT22;10330;48.816;9.278;2022-08-21T06:51:49;17.10;99.90
20345;DHT22;10330;48.816;9.278;2022-08-21T06:54:15;17.30;99.90
20345;DHT22;10330;48.816;9.278;2022-08-21T06:56:41;17.40;99.90
20345;DHT22;10330;48.816;9.278;2022-08-21T06:59:08;17.50;99.90
20345;DHT22;10330;48.816;9.278;2022-08-21T07:01:44;17.60;99.90
20345;DHT22;10330;48.816;9.278;2022-08-21T07:04:11;17.70;99.90
20345;DHT22;10330;48.816;9.278;2022-08-21T07:06:37;17.80;99.90
20345;DHT22;10330;48.816;9.278;2022-08-21T07:09:03;18.00;99.90
20345;DHT22;10330;48.816;9.278;2022-08-21T07:11:30;18.10;99.90
20345;DHT22;10330;48.816;9.278;2022-08-21T07:13:56;18.10;99.90
20345;DHT22;10330;48.816;9.278;2022-08-21T07:16:23;18.30;99.90
20345;DHT22;10330;48.816;9.278;2022-08-21T07:18:50;18.40;99.90
20345;DHT22;10330;48.816;9.278;2022-08-21T07:21:16;18.50;99.90
20345;DHT22;10330;48.816;9.278;2022-08-21T07:23:45;18.60;99.90
20345;DHT22;10330;48.816;9.278;2022-08-21T07:26:14;18.60;99.90
20345;DHT22;10330;48.816;9.278;2022-08-21T07:28:40;18.70;99.90
20345;DHT22;10330;48.816;9.278;2022-08-21T07:31:08;18.80;99.90
20345;DHT22;10330;48.816;9.278;2022-08-21T07:33:35;18.80;99.90
20345;DHT22;10330;48.816;9.278;2022-08-21T07:36:02;18.90;99.90
20345;DHT22;10330;48.816;9.278;2022-08-21T07:38:28;18.90;99.90
20345;DHT22;10330;48.816;9.278;2022-08-21T07:40:56;19.10;99.90
20345;DHT22;10330;48.816;9.278;2022-08-21T07:43:25;19.10;99.90
20345;DHT22;10330;48.816;9.278;2022-08-21T07:45:52;19.20;99.90
20345;DHT22;10330;48.816;9.278;2022-08-21T07:48:20;19.30;99.90
20345;DHT22;10330;48.816;9.278;2022-08-21T07:50:47;19.30;99.90
20345;DHT22;10330;48.816;9.278;2022-08-21T07:53:14;19.40;99.90
20345;DHT22;10330;48.816;9.278;2022-08-21T07:55:41;19.50;99.90
20345;DHT22;10330;48.816;9.278;2022-08-21T07:58:07;19.50;99.90
20345;DHT22;10330;48.816;9.278;2022-08-21T08:00:34;19.60;99.90
20345;DHT22;10330;48.816;9.278;2022-08-21T08:03:01;19.60;99.90
20345;DHT22;10330;48.816;9.278;2022-08-21T08:05:29;19.70;99.90
20345;DHT22;10330;48.816;9.278;2022-08-21T08:07:57;19.80;99.90
20345;DHT22;10330;48.816;9.278;2022-08-21T08:10:23;19.80;99.90
20345;DHT22;10330;48.816;9.278;2022-08-21T08:12:50;19.80;99.90
20345;DHT22;10330;48.816;9.278;2022-08-21T08:15:21;19.90;99.90
20345;DHT22;10330;48.816;9.278;2022-08-21T08:17:48;19.90;99.90
20345;DHT22;10330;48.816;9.278;2022-08-21T08:20:16;20.00;99.90
20345;DHT22;10330;48.816;9.278;2022-08-21T08:22:42;20.10;99.90
20345;DHT22;10330;48.816;9.278;2022-08-21T08:25:10;20.20;99.90
20345;DHT22;10330;48.816;9.278;2022-08-21T08:27:37;20.20;99.90
20345;DHT22;10330;48.816;9.278;2022-08-21T08:30:06;20.30;99.90
20345;DHT22;10330;48.816;9.278;2022-08-21T08:32:32;20.40;99.90
20345;DHT22;10330;48.816;9.278;2022-08-21T08:34:59;20.50;99.90
20345;DHT22;10330;48.816;9.278;2022-08-21T08:37:25;20.50;99.90
20345;DHT22;10330;48.816;9.278;2022-08-21T08:39:53;20.60;99.90
20345;DHT22;10330;48.816;9.278;2022-08-21T08:42:28;20.60;99.90
20345;DHT22;10330;48.816;9.278;2022-08-21T08:45:17;20.70;99.90
20345;DHT22;10330;48.816;9.278;2022-08-21T08:47:49;20.80;99.90
20345;DHT22;10330;48.816;9.278;2022-08-21T08:50:23;20.90;99.90
20345;DHT22;10330;48.816;9.278;2022-08-21T08:52:52;20.90;99.90
20345;DHT22;10330;48.816;9.278;2022-08-21T08:55:41;21.00;99.90
20345;DHT22;10330;48.816;9.278;2022-08-21T09:00:55;21.10;99.90
20345;DHT22;10330;48.816;9.278;2022-08-21T09:03:26;21.10;99.90
20345;DHT22;10330;48.816;9.278;2022-08-21T09:09:09;21.30;99.90
20345;DHT22;10330;48.816;9.278;2022-08-21T09:12:14;21.40;99.90
20345;DHT22;10330;48.816;9.278;2022-08-21T09:18:05;21.50;99.90
20345;DHT22;10330;48.816;9.278;2022-08-21T09:25:38;21.80;99.90
20345;DHT22;10330;48.816;9.278;2022-08-21T09:28:09;21.80;99.90
20345;DHT22;10330;48.816;9.278;2022-08-21T09:30:39;21.90;99.90
20345;DHT22;10330;48.816;9.278;2022-08-21T09:33:09;21.90;99.90
20345;DHT22;10330;48.816;9.278;2022-08-21T09:35:35;22.00;99.90
20345;DHT22;10330;48.816;9.278;2022-08-21T09:38:06;22.30;99.90
20345;DHT22;10330;48.816;9.278;2022-08-21T09:40:41;22.40;99.90
20345;DHT22;10330;48.816;9.278;2022-08-21T09:45:39;22.40;99.90
20345;DHT22;10330;48.816;9.278;2022-08-21T09:48:18;22.50;99.90
20345;DHT22;10330;48.816;9.278;2022-08-21T09:50:45;22.60;99.90
20345;DHT22;10330;48.816;9.278;2022-08-21T09:53:30;22.60;99.90
20345;DHT22;10330;48.816;9.278;2022-08-21T09:56:34;22.60;99.90
20345;DHT22;10330;48.816;9.278;2022-08-21T09:59:26;22.70;99.90
20345;DHT22;10330;48.816;9.278;2022-08-21T10:01:53;22.80;99.90
20345;DHT22;10330;48.816;9.278;2022-08-21T10:04:32;22.90;99.90
20345;DHT22;10330;48.816;9.278;2022-08-21T10:07:09;23.10;99.90
20345;DHT22;10330;48.816;9.278;2022-08-21T10:09:36;23.10;99.90
20345;DHT22;10330;48.816;9.278;2022-08-21T10:12:22;23.20;99.90
20345;DHT22;10330;48.816;9.278;2022-08-21T10:15:09;23.20;99.90
20345;DHT22;10330;48.816;9.278;2022-08-21T10:20:41;23.50;99.90
20345;DHT22;10330;48.816;9.278;2022-08-21T10:37:27;23.60;99.90
20345;DHT22;10330;48.816;9.278;2022-08-21T10:40:24;23.70;99.90
20345;DHT22;10330;48.816;9.278;2022-08-21T10:49:43;24.00;99.90
20345;DHT22;10330;48.816;9.278;2022-08-21T10:55:40;24.20;99.90
20345;DHT22;10330;48.816;9.278;2022-08-21T10:58:26;24.20;99.90
20345;DHT22;10330;48.816;9.278;2022-08-21T11:04:26;24.40;99.90
20345;DHT22;10330;48.816;9.278;2022-08-21T11:07:07;24.60;99.90
20345;DHT22;10330;48.816;9.278;2022-08-21T11:09:39;24.80;99.90
20345;DHT22;10330;48.816;9.278;2022-08-21T11:12:19;25.00;99.90
20345;DHT22;10330;48.816;9.278;2022-08-21T11:15:11;25.10;99.90
20345;DHT22;10330;48.816;9.278;2022-08-21T11:17:47;25.20;99.90
20345;DHT22;10330;48.816;9.278;2022-08-21T11:20:26;25.40;99.90
20345;DHT22;10330;48.816;9.278;2022-08-21T11:26:27;25.80;99.90
20345;DHT22;10330;48.816;9.278;2022-08-21T11:29:04;26.00;99.90
20345;DHT22;10330;48.816;9.278;2022-08-21T11:51:48;27.20;99.90
20345;DHT22;10330;48.816;9.278;2022-08-21T11:57:58;28.20;99.90
20345;DHT22;10330;48.816;9.278;2022-08-21T12:00:33;28.80;99.90
20345;DHT22;10330;48.816;9.278;2022-08-21T12:03:29;29.30;99.90
20345;DHT22;10330;48.816;9.278;2022-08-21T12:06:02;29.80;99.90
20345;DHT22;10330;48.816;9.278;2022-08-21T12:08:35;30.40;97.80
20345;DHT22;10330;48.816;9.278;2022-08-21T12:21:26;31.60;94.10
20345;DHT22;10330;48.816;9.278;2022-08-21T12:26:52;31.70;92.50
20345;DHT22;10330;48.816;9.278;2022-08-21T12:37:46;32.00;90.80
20345;DHT22;10330;48.816;9.278;2022-08-21T12:43:05;32.30;90.00
20345;DHT22;10330;48.816;9.278;2022-08-21T12:45:44;32.60;88.70
20345;DHT22;10330;48.816;9.278;2022-08-21T12:51:26;32.30;85.20
20345;DHT22;10330;48.816;9.278;2022-08-21T12:53:57;32.40;85.70
20345;DHT22;10330;48.816;9.278;2022-08-21T12:56:42;32.50;85.50
20345;DHT22;10330;48.816;9.278;2022-08-21T12:59:11;32.60;83.60
20345;DHT22;10330;48.816;9.278;2022-08-21T13:01:50;32.90;85.60
20345;DHT22;10330;48.816;9.278;2022-08-21T13:04:21;33.20;83.30
20345;DHT22;10330;48.816;9.278;2022-08-21T13:06:51;33.20;80.30
20345;DHT22;10330;48.816;9.278;2022-08-21T13:09:28;33.30;82.90
20345;DHT22;10330;48.816;9.278;2022-08-21T13:11:55;33.50;80.20
20345;DHT22;10330;48.816;9.278;2022-08-21T13:14:49;33.60;79.30
20345;DHT22;10330;48.816;9.278;2022-08-21T13:17:19;33.60;79.50
20345;DHT22;10330;48.816;9.278;2022-08-21T13:20:05;33.70;80.70
20345;DHT22;10330;48.816;9.278;2022-08-21T13:22:32;33.90;79.90
20345;DHT22;10330;48.816;9.278;2022-08-21T13:25:03;33.80;79.70
20345;DHT22;10330;48.816;9.278;2022-08-21T13:27:35;33.80;79.20
20345;DHT22;10330;48.816;9.278;2022-08-21T13:32:43;33.40;78.90
20345;DHT22;10330;48.816;9.278;2022-08-21T13:38:23;33.50;77.80
20345;DHT22;10330;48.816;9.278;2022-08-21T13:41:43;33.80;75.80
20345;DHT22;10330;48.816;9.278;2022-08-21T13:46:29;33.80;72.20
20345;DHT22;10330;48.816;9.278;2022-08-21T13:48:59;33.80;74.40
20345;DHT22;10330;48.816;9.278;2022-08-21T13:51:26;33.80;73.90
20345;DHT22;10330;48.816;9.278;2022-08-21T13:53:53;33.90;72.00
20345;DHT22;10330;48.816;9.278;2022-08-21T13:56:42;33.90;74.70
20345;DHT22;10330;48.816;9.278;2022-08-21T13:59:10;34.20;73.50
20345;DHT22;10330;48.816;9.278;2022-08-21T14:01:51;33.90;74.50
20345;DHT22;10330;48.816;9.278;2022-08-21T14:04:24;33.60;74.30
20345;DHT22;10330;48.816;9.278;2022-08-21T14:06:52;33.50;73.00
20345;DHT22;10330;48.816;9.278;2022-08-21T14:11:54;33.50;74.80
20345;DHT22;10330;48.816;9.278;2022-08-21T14:14:32;33.70;73.60
20345;DHT22;10330;48.816;9.278;2022-08-21T14:17:09;33.80;74.40
20345;DHT22;10330;48.816;9.278;2022-08-21T14:19:46;34.00;73.70
20345;DHT22;10330;48.816;9.278;2022-08-21T14:30:35;34.20;67.40
20345;DHT22;10330;48.816;9.278;2022-08-21T14:33:12;34.40;67.70
20345;DHT22;10330;48.816;9.278;2022-08-21T14:35:43;34.30;69.80
20345;DHT22;10330;48.816;9.278;2022-08-21T14:38:25;34.20;66.30
20345;DHT22;10330;48.816;9.278;2022-08-21T14:40:57;34.50;67.80
20345;DHT22;10330;48.816;9.278;2022-08-21T14:43:27;34.30;68.20
20345;DHT22;10330;48.816;9.278;2022-08-21T14:45:54;34.20;67.90
20345;DHT22;10330;48.816;9.278;2022-08-21T14:48:21;33.80;66.40
20345;DHT22;10330;48.816;9.278;2022-08-21T14:50:47;33.90;65.90
20345;DHT22;10330;48.816;9.278;2022-08-21T14:53:13;34.20;68.60
20345;DHT22;10330;48.816;9.278;2022-08-21T14:55:42;34.30;68.70
20345;DHT22;10330;48.816;9.278;2022-08-21T14:58:26;34.30;67.90
20345;DHT22;10330;48.816;9.278;2022-08-21T15:00:54;34.30;65.70
20345;DHT22;10330;48.816;9.278;2022-08-21T15:03:20;34.20;67.30
20345;DHT22;10330;48.816;9.278;2022-08-21T15:05:53;34.30;68.10
20345;DHT22;10330;48.816;9.278;2022-08-21T15:08:19;33.80;66.00
20345;DHT22;10330;48.816;9.278;2022-08-21T15:10:46;33.90;64.90
20345;DHT22;10330;48.816;9.278;2022-08-21T15:13:12;34.00;66.40
20345;DHT22;10330;48.816;9.278;2022-08-21T15:15:42;34.00;65.70
20345;DHT22;10330;48.816;9.278;2022-08-21T15:18:09;34.00;66.40
20345;DHT22;10330;48.816;9.278;2022-08-21T15:20:36;33.80;65.80
20345;DHT22;10330;48.816;9.278;2022-08-21T15:23:04;34.10;66.90
20345;DHT22;10330;48.816;9.278;2022-08-21T15:25:32;34.50;65.60
20345;DHT22;10330;48.816;9.278;2022-08-21T15:27:59;34.50;65.50
20345;DHT22;10330;48.816;9.278;2022-08-21T15:30:27;34.50;65.70
20345;DHT22;10330;48.816;9.278;2022-08-21T15:32:54;34.20;64.10
20345;DHT22;10330;48.816;9.278;2022-08-21T15:35:21;34.50;65.90
20345;DHT22;10330;48.816;9.278;2022-08-21T15:37:47;34.50;62.50
20345;DHT22;10330;48.816;9.278;2022-08-21T15:40:14;34.80;63.80
20345;DHT22;10330;48.816;9.278;2022-08-21T15:42:41;35.10;64.50
20345;DHT22;10330;48.816;9.278;2022-08-21T15:45:09;35.00;63.60
20345;DHT22;10330;48.816;9.278;2022-08-21T15:47:38;35.00;63.10
20345;DHT22;10330;48.816;9.278;2022-08-21T15:50:09;34.60;62.90
20345;DHT22;10330;48.816;9.278;2022-08-21T15:52:35;34.50;63.50
20345;DHT22;10330;48.816;9.278;2022-08-21T15:55:03;34.40;63.20
20345;DHT22;10330;48.816;9.278;2022-08-21T15:57:30;34.20;62.70
20345;DHT22;10330;48.816;9.278;2022-08-21T15:59:58;34.00;62.40
20345;DHT22;10330;48.816;9.278;2022-08-21T16:02:39;33.90;62.70
20345;DHT22;10330;48.816;9.278;2022-08-21T16:05:06;34.10;63.40
20345;DHT22;10330;48.816;9.278;2022-08-21T16:07:33;34.10;64.20
20345;DHT22;10330;48.816;9.278;2022-08-21T16:09:59;34.40;63.40
20345;DHT22;10330;48.816;9.278;2022-08-21T16:12:32;34.40;62.70
20345;DHT22;10330;48.816;9.278;2022-08-21T16:15:01;34.40;63.20
20345;DHT22;10330;48.816;9.278;2022-08-21T16:17:30;34.20;62.90
20345;DHT22;10330;48.816;9.278;2022-08-21T16:19:57;34.00;62.70
20345;DHT22;10330;48.816;9.278;2022-08-21T16:22:24;33.80;61.20
20345;DHT22;10330;48.816;9.278;2022-08-21T16:24:50;33.80;62.10
20345;DHT22;10330;48.816;9.278;2022-08-21T16:27:20;33.90;62.00
20345;DHT22;10330;48.816;9.278;2022-08-21T16:29:47;34.00;63.20
20345;DHT22;10330;48.816;9.278;2022-08-21T16:32:15;34.00;62.70
20345;DHT22;10330;48.816;9.278;2022-08-21T16:34:47;34.00;63.50
20345;DHT22;10330;48.816;9.278;2022-08-21T16:37:19;33.80;63.20
20345;DHT22;10330;48.816;9.278;2022-08-21T16:39:51;33.80;62.20
20345;DHT22;10330;48.816;9.278;2022-08-21T16:42:22;33.80;63.70
20345;DHT22;10330;48.816;9.278;2022-08-21T16:44:48;33.70;62.70
20345;DHT22;10330;48.816;9.278;2022-08-21T16:47:14;33.60;63.20
20345;DHT22;10330;48.816;9.278;2022-08-21T16:49:41;33.50;63.90
20345;DHT22;10330;48.816;9.278;2022-08-21T16:52:07;33.30;63.00
20345;DHT22;10330;48.816;9.278;2022-08-21T16:54:39;33.20;64.00
20345;DHT22;10330;48.816;9.278;2022-08-21T16:57:08;33.10;62.40
20345;DHT22;10330;48.816;9.278;2022-08-21T16:59:35;33.10;63.50
20345;DHT22;10330;48.816;9.278;2022-08-21T17:02:01;32.90;63.60
20345;DHT22;10330;48.816;9.278;2022-08-21T17:04:28;32.80;63.60
20345;DHT22;10330;48.816;9.278;2022-08-21T17:06:55;32.60;64.30
20345;DHT22;10330;48.816;9.278;2022-08-21T17:09:22;32.50;64.50
20345;DHT22;10330;48.816;9.278;2022-08-21T17:11:48;32.20;63.80
20345;DHT22;10330;48.816;9.278;2022-08-21T17:14:19;31.90;64.40
20345;DHT22;10330;48.816;9.278;2022-08-21T17:16:51;31.40;65.50
20345;DHT22;10330;48.816;9.278;2022-08-21T17:19:19;30.90;66.20
20345;DHT22;10330;48.816;9.278;2022-08-21T17:21:46;30.60;67.10
20345;DHT22;10330;48.816;9.278;2022-08-21T17:24:12;30.30;67.70
20345;DHT22;10330;48.816;9.278;2022-08-21T17:26:41;30.00;69.00
20345;DHT22;10330;48.816;9.278;2022-08-21T17:29:11;29.70;69.50
20345;DHT22;10330;48.816;9.278;2022-08-21T17:31:40;29.50;69.80
20345;DHT22;10330;48.816;9.278;2022-08-21T17:34:07;29.20;70.50
20345;DHT22;10330;48.816;9.278;2022-08-21T17:36:35;29.00;71.20
20345;DHT22;10330;48.816;9.278;2022-08-21T17:39:05;28.80;72.40
20345;DHT22;10330;48.816;9.278;2022-08-21T17:41:34;28.60;72.60
20345;DHT22;10330;48.816;9.278;2022-08-21T17:44:03;28.50;73.10
20345;DHT22;10330;48.816;9.278;2022-08-21T17:46:32;28.30;73.30
20345;DHT22;10330;48.816;9.278;2022-08-21T17:48:58;28.20;74.10
20345;DHT22;10330;48.816;9.278;2022-08-21T17:51:24;28.00;74.10
20345;DHT22;10330;48.816;9.278;2022-08-21T17:53:51;27.90;74.30